sensor_id;sensor_type;location;lat;lon;timestamp;P1;durP1;ratioP1;P2;durP2;ratioP2
52047;SDS011;46904;49.438;8.752;2023-01-09T00:00:16;2.80;;;2.10;;
52047;SDS011;46904;49.438;8.752;2023-01-09T00:02:42;1.75;;;1.65;;
52047;SDS011;46904;49.438;8.752;2023-01-09T00:05:09;1.50;;;1.40;;
52047;SDS011;46904;49.438;8.752;2023-01-09T00:07:35;2.08;;;1.88;;
52047;SDS011;46904;49.438;8.752;2023-01-09T00:10:04;1.60;;;1.50;;
52047;SDS011;46904;49.438;8.752;2023-01-09T00:12:30;1.63;;;1.52;;
52047;SDS011;46904;49.438;8.752;2023-01-09T00:14:56;2.53;;;1.50;;
52047;SDS011;46904;49.438;8.752;2023-01-09T00:17:21;1.45;;;1.23;;
52047;SDS011;46904;49.438;8.752;2023-01-09T00:19:47;1.23;;;1.13;;
52047;SDS011;46904;49.438;8.752;2023-01-09T00:22:12;1.52;;;1.27;;
52047;SDS011;46904;49.438;8.752;2023-01-09T00:24:38;1.10;;;1.00;;
52047;SDS011;46904;49.438;8.752;2023-01-09T00:27:04;1.45;;;1.10;;
52047;SDS011;46904;49.438;8.752;2023-01-09T00:29:29;2.03;;;1.17;;
52047;SDS011;46904;49.438;8.752;2023-01-09T00:31:55;1.40;;;1.30;;
52047;SDS011;46904;49.438;8.752;2023-01-09T00:34:21;1.20;;;1.10;;
52047;SDS011;46904;49.438;8.752;2023-01-09T00:36:47;1.17;;;1.08;;
52047;SDS011;46904;49.438;8.752;2023-01-09T00:39:13;1.50;;;1.40;;
52047;SDS011;46904;49.438;8.752;2023-01-09T00:41:43;4.32;;;1.20;;
52047;SDS011;46904;49.438;8.752;2023-01-09T00:44:12;2.13;;;1.42;;
52047;SDS011;46904;49.438;8.752;2023-01-09T00:49:04;1.48;;;1.38;;
52047;SDS011;46904;49.438;8.752;2023-01-09T00:51:30;1.40;;;1.30;;
52047;SDS011;46904;49.438;8.752;2023-01-09T00:53:55;1.70;;;1.52;;
52047;SDS011;46904;49.438;8.752;2023-01-09T00:56:21;1.40;;;1.30;;
52047;SDS011;46904;49.438;8.752;2023-01-09T00:58:47;1.33;;;1.23;;
52047;SDS011;46904;49.438;8.752;2023-01-09T01:01:12;1.50;;;1.40;;
52047;SDS011;46904;49.438;8.752;2023-01-09T01:03:38;1.77;;;1.55;;
52047;SDS011;46904;49.438;8.752;2023-01-09T01:06:04;1.63;;;1.50;;
52047;SDS011;46904;49.438;8.752;2023-01-09T01:08:29;1.40;;;1.30;;
52047;SDS011;46904;49.438;8.752;2023-01-09T01:10:55;1.85;;;1.40;;
52047;SDS011;46904;49.438;8.752;2023-01-09T01:13:20;1.42;;;1.33;;
52047;SDS011;46904;49.438;8.752;2023-01-09T01:15:46;1.33;;;1.23;;
52047;SDS011;46904;49.438;8.752;2023-01-09T01:18:12;1.55;;;1.45;;
52047;SDS011;46904;49.438;8.752;2023-01-09T01:20:42;1.50;;;1.40;;
52047;SDS011;46904;49.438;8.752;2023-01-09T01:23:08;1.27;;;1.17;;
52047;SDS011;46904;49.438;8.752;2023-01-09T01:25:37;4.63;;;1.15;;
52047;SDS011;46904;49.438;8.752;2023-01-09T01:28:03;1.35;;;1.23;;
52047;SDS011;46904;49.438;8.752;2023-01-09T01:30:28;1.45;;;1.15;;
52047;SDS011;46904;49.438;8.752;2023-01-09T01:32:54;0.70;;;0.70;;
52047;SDS011;46904;49.438;8.752;2023-01-09T01:35:19;0.80;;;0.80;;
52047;SDS011;46904;49.438;8.752;2023-01-09T01:37:45;1.10;;;0.80;;
52047;SDS011;46904;49.438;8.752;2023-01-09T01:40:11;0.80;;;0.80;;
52047;SDS011;46904;49.438;8.752;2023-01-09T01:42:39;0.93;;;0.70;;
52047;SDS011;46904;49.438;8.752;2023-01-09T01:45:19;0.80;;;0.70;;
52047;SDS011;46904;49.438;8.752;2023-01-09T01:47:47;0.80;;;0.80;;
52047;SDS011;46904;49.438;8.752;2023-01-09T01:52:38;0.98;;;0.60;;
52047;SDS011;46904;49.438;8.752;2023-01-09T01:55:05;0.68;;;0.68;;
52047;SDS011;46904;49.438;8.752;2023-01-09T01:57:31;1.27;;;1.17;;
52047;SDS011;46904;49.438;8.752;2023-01-09T01:59:57;0.50;;;0.50;;
52047;SDS011;46904;49.438;8.752;2023-01-09T02:02:24;0.60;;;0.60;;
52047;SDS011;46904;49.438;8.752;2023-01-09T02:04:52;0.70;;;0.70;;
52047;SDS011;46904;49.438;8.752;2023-01-09T02:07:18;1.63;;;0.98;;
52047;SDS011;46904;49.438;8.752;2023-01-09T02:09:44;0.88;;;0.70;;
52047;SDS011;46904;49.438;8.752;2023-01-09T02:12:28;0.98;;;0.60;;
52047;SDS011;46904;49.438;8.752;2023-01-09T02:30:15;0.93;;;0.90;;
52047;SDS011;46904;49.438;8.752;2023-01-09T02:43:00;0.80;;;0.80;;
52047;SDS011;46904;49.438;8.752;2023-01-09T02:45:26;1.10;;;0.93;;
52047;SDS011;46904;49.438;8.752;2023-01-09T02:47:52;0.77;;;0.77;;
52047;SDS011;46904;49.438;8.752;2023-01-09T02:50:19;0.85;;;0.85;;
52047;SDS011;46904;49.438;8.752;2023-01-09T03:03:17;1.02;;;0.93;;
52047;SDS011;46904;49.438;8.752;2023-01-09T03:05:51;0.90;;;0.85;;
52047;SDS011;46904;49.438;8.752;2023-01-09T03:08:22;1.23;;;1.00;;
52047;SDS011;46904;49.438;8.752;2023-01-09T03:11:00;1.67;;;0.90;;
52047;SDS011;46904;49.438;8.752;2023-01-09T03:13:31;1.10;;;1.00;;
52047;SDS011;46904;49.438;8.752;2023-01-09T03:15:57;0.77;;;0.77;;
52047;SDS011;46904;49.438;8.752;2023-01-09T03:18:25;1.58;;;1.10;;
52047;SDS011;46904;49.438;8.752;2023-01-09T03:20:53;0.95;;;0.80;;
52047;SDS011;46904;49.438;8.752;2023-01-09T03:23:19;0.98;;;0.82;;
52047;SDS011;46904;49.438;8.752;2023-01-09T03:25:45;1.38;;;1.27;;
52047;SDS011;46904;49.438;8.752;2023-01-09T03:28:28;1.33;;;1.20;;
52047;SDS011;46904;49.438;8.752;2023-01-09T03:30:56;1.00;;;0.90;;
52047;SDS011;46904;49.438;8.752;2023-01-09T03:33:22;0.95;;;0.90;;
52047;SDS011;46904;49.438;8.752;2023-01-09T03:35:47;1.45;;;1.10;;
52047;SDS011;46904;49.438;8.752;2023-01-09T03:38:13;1.77;;;0.90;;
52047;SDS011;46904;49.438;8.752;2023-01-09T03:40:39;2.38;;;1.00;;
52047;SDS011;46904;49.438;8.752;2023-01-09T03:43:05;1.60;;;1.00;;
52047;SDS011;46904;49.438;8.752;2023-01-09T03:45:30;1.00;;;0.90;;
52047;SDS011;46904;49.438;8.752;2023-01-09T03:47:56;0.90;;;0.90;;
52047;SDS011;46904;49.438;8.752;2023-01-09T03:50:22;1.08;;;0.98;;
52047;SDS011;46904;49.438;8.752;2023-01-09T03:52:48;1.00;;;0.90;;
52047;SDS011;46904;49.438;8.752;2023-01-09T03:55:14;0.88;;;0.88;;
52047;SDS011;46904;49.438;8.752;2023-01-09T03:57:39;1.13;;;0.90;;
52047;SDS011;46904;49.438;8.752;2023-01-09T04:00:05;2.63;;;0.73;;
52047;SDS011;46904;49.438;8.752;2023-01-09T04:02:33;1.55;;;0.77;;
52047;SDS011;46904;49.438;8.752;2023-01-09T04:04:59;3.03;;;1.00;;
52047;SDS011;46904;49.438;8.752;2023-01-09T04:07:24;1.10;;;1.00;;
52047;SDS011;46904;49.438;8.752;2023-01-09T04:09:53;0.80;;;0.80;;
52047;SDS011;46904;49.438;8.752;2023-01-09T04:12:18;1.15;;;1.00;;
52047;SDS011;46904;49.438;8.752;2023-01-09T04:14:44;0.90;;;0.90;;
52047;SDS011;46904;49.438;8.752;2023-01-09T04:17:09;0.93;;;0.90;;
52047;SDS011;46904;49.438;8.752;2023-01-09T04:19:35;1.20;;;1.05;;
52047;SDS011;46904;49.438;8.752;2023-01-09T04:22:03;1.42;;;0.90;;
52047;SDS011;46904;49.438;8.752;2023-01-09T04:24:28;1.10;;;1.00;;
52047;SDS011;46904;49.438;8.752;2023-01-09T04:26:57;1.42;;;0.88;;
52047;SDS011;46904;49.438;8.752;2023-01-09T04:29:23;2.67;;;0.90;;
52047;SDS011;46904;49.438;8.752;2023-01-09T04:31:49;0.80;;;0.80;;
52047;SDS011;46904;49.438;8.752;2023-01-09T04:34:14;0.77;;;0.70;;
52047;SDS011;46904;49.438;8.752;2023-01-09T04:36:40;1.02;;;0.77;;
52047;SDS011;46904;49.438;8.752;2023-01-09T04:39:05;0.77;;;0.60;;
52047;SDS011;46904;49.438;8.752;2023-01-09T04:41:31;0.70;;;0.70;;
52047;SDS011;46904;49.438;8.752;2023-01-09T04:43:57;0.88;;;0.70;;
52047;SDS011;46904;49.438;8.752;2023-01-09T04:46:23;1.00;;;0.60;;
52047;SDS011;46904;49.438;8.752;2023-01-09T04:48:49;0.80;;;0.80;;
52047;SDS011;46904;49.438;8.752;2023-01-09T04:51:14;0.98;;;0.80;;
52047;SDS011;46904;49.438;8.752;2023-01-09T04:53:42;1.05;;;0.70;;
52047;SDS011;46904;49.438;8.752;2023-01-09T04:56:08;1.08;;;0.55;;
52047;SDS011;46904;49.438;8.752;2023-01-09T04:58:34;0.60;;;0.60;;
52047;SDS011;46904;49.438;8.752;2023-01-09T05:01:00;1.27;;;0.50;;
52047;SDS011;46904;49.438;8.752;2023-01-09T05:03:33;0.60;;;0.50;;
52047;SDS011;46904;49.438;8.752;2023-01-09T05:06:00;1.33;;;0.68;;
52047;SDS011;46904;49.438;8.752;2023-01-09T05:08:28;0.98;;;0.80;;
52047;SDS011;46904;49.438;8.752;2023-01-09T05:10:54;0.60;;;0.60;;
52047;SDS011;46904;49.438;8.752;2023-01-09T05:13:19;0.50;;;0.50;;
52047;SDS011;46904;49.438;8.752;2023-01-09T05:15:50;1.50;;;0.57;;
52047;SDS011;46904;49.438;8.752;2023-01-09T05:18:16;0.88;;;0.77;;
52047;SDS011;46904;49.438;8.752;2023-01-09T05:20:41;0.73;;;0.50;;
52047;SDS011;46904;49.438;8.752;2023-01-09T05:23:07;0.80;;;0.80;;
52047;SDS011;46904;49.438;8.752;2023-01-09T05:25:33;0.70;;;0.60;;
52047;SDS011;46904;49.438;8.752;2023-01-09T05:27:58;0.80;;;0.60;;
52047;SDS011;46904;49.438;8.752;2023-01-09T05:30:24;0.60;;;0.60;;
52047;SDS011;46904;49.438;8.752;2023-01-09T05:32:49;0.73;;;0.52;;
52047;SDS011;46904;49.438;8.752;2023-01-09T05:35:15;0.93;;;0.70;;
52047;SDS011;46904;49.438;8.752;2023-01-09T05:37:41;0.70;;;0.70;;
52047;SDS011;46904;49.438;8.752;2023-01-09T05:40:06;0.60;;;0.50;;
52047;SDS011;46904;49.438;8.752;2023-01-09T05:42:32;1.80;;;0.60;;
52047;SDS011;46904;49.438;8.752;2023-01-09T05:44:58;0.50;;;0.50;;
52047;SDS011;46904;49.438;8.752;2023-01-09T05:47:28;0.80;;;0.80;;
52047;SDS011;46904;49.438;8.752;2023-01-09T05:49:54;0.70;;;0.70;;
52047;SDS011;46904;49.438;8.752;2023-01-09T05:52:20;0.52;;;0.40;;
52047;SDS011;46904;49.438;8.752;2023-01-09T05:54:47;0.57;;;0.57;;
52047;SDS011;46904;49.438;8.752;2023-01-09T05:57:13;0.60;;;0.60;;
52047;SDS011;46904;49.438;8.752;2023-01-09T05:59:38;0.75;;;0.60;;
52047;SDS011;46904;49.438;8.752;2023-01-09T06:02:10;2.83;;;0.70;;
52047;SDS011;46904;49.438;8.752;2023-01-09T06:04:40;0.60;;;0.55;;
52047;SDS011;46904;49.438;8.752;2023-01-09T06:07:05;1.17;;;0.60;;
52047;SDS011;46904;49.438;8.752;2023-01-09T06:09:31;0.70;;;0.70;;
52047;SDS011;46904;49.438;8.752;2023-01-09T06:11:56;1.45;;;0.60;;
52047;SDS011;46904;49.438;8.752;2023-01-09T06:14:24;2.28;;;0.65;;
52047;SDS011;46904;49.438;8.752;2023-01-09T06:16:51;0.70;;;0.65;;
52047;SDS011;46904;49.438;8.752;2023-01-09T06:19:16;0.65;;;0.52;;
52047;SDS011;46904;49.438;8.752;2023-01-09T06:21:48;1.95;;;0.70;;
52047;SDS011;46904;49.438;8.752;2023-01-09T06:24:17;0.50;;;0.50;;
52047;SDS011;46904;49.438;8.752;2023-01-09T06:26:49;1.63;;;0.70;;
52047;SDS011;46904;49.438;8.752;2023-01-09T06:29:18;1.42;;;0.80;;
52047;SDS011;46904;49.438;8.752;2023-01-09T06:31:44;0.65;;;0.63;;
52047;SDS011;46904;49.438;8.752;2023-01-09T06:34:16;0.88;;;0.75;;
52047;SDS011;46904;49.438;8.752;2023-01-09T06:36:42;2.53;;;0.70;;
52047;SDS011;46904;49.438;8.752;2023-01-09T06:39:08;1.80;;;0.70;;
52047;SDS011;46904;49.438;8.752;2023-01-09T06:41:33;2.22;;;0.95;;
52047;SDS011;46904;49.438;8.752;2023-01-09T06:44:01;2.15;;;0.63;;
52047;SDS011;46904;49.438;8.752;2023-01-09T06:46:32;1.63;;;0.80;;
52047;SDS011;46904;49.438;8.752;2023-01-09T06:48:57;0.93;;;0.77;;
52047;SDS011;46904;49.438;8.752;2023-01-09T06:51:23;1.27;;;0.88;;
52047;SDS011;46904;49.438;8.752;2023-01-09T06:53:49;2.25;;;0.82;;
52047;SDS011;46904;49.438;8.752;2023-01-09T06:56:14;1.58;;;1.00;;
52047;SDS011;46904;49.438;8.752;2023-01-09T06:58:40;1.95;;;1.02;;
52047;SDS011;46904;49.438;8.752;2023-01-09T07:01:05;2.78;;;0.95;;
52047;SDS011;46904;49.438;8.752;2023-01-09T07:03:31;1.23;;;0.68;;
52047;SDS011;46904;49.438;8.752;2023-01-09T07:05:57;4.75;;;1.08;;
52047;SDS011;46904;49.438;8.752;2023-01-09T07:08:22;1.67;;;1.05;;
52047;SDS011;46904;49.438;8.752;2023-01-09T07:10:48;2.45;;;0.80;;
52047;SDS011;46904;49.438;8.752;2023-01-09T07:13:14;2.72;;;0.80;;
52047;SDS011;46904;49.438;8.752;2023-01-09T07:15:42;2.00;;;0.80;;
52047;SDS011;46904;49.438;8.752;2023-01-09T07:18:08;2.28;;;0.85;;
52047;SDS011;46904;49.438;8.752;2023-01-09T07:20:37;3.17;;;0.90;;
52047;SDS011;46904;49.438;8.752;2023-01-09T07:23:07;0.90;;;0.60;;
52047;SDS011;46904;49.438;8.752;2023-01-09T07:25:47;1.65;;;0.93;;
52047;SDS011;46904;49.438;8.752;2023-01-09T07:28:15;4.47;;;1.27;;
52047;SDS011;46904;49.438;8.752;2023-01-09T07:30:41;2.15;;;1.00;;
52047;SDS011;46904;49.438;8.752;2023-01-09T07:33:16;4.40;;;0.90;;
52047;SDS011;46904;49.438;8.752;2023-01-09T07:35:43;2.95;;;0.70;;
52047;SDS011;46904;49.438;8.752;2023-01-09T07:38:09;3.00;;;1.02;;
52047;SDS011;46904;49.438;8.752;2023-01-09T07:40:35;2.95;;;0.90;;
52047;SDS011;46904;49.438;8.752;2023-01-09T07:43:04;1.70;;;0.88;;
52047;SDS011;46904;49.438;8.752;2023-01-09T07:45:30;1.42;;;0.77;;
52047;SDS011;46904;49.438;8.752;2023-01-09T07:48:01;1.50;;;0.90;;
52047;SDS011;46904;49.438;8.752;2023-01-09T07:50:27;1.27;;;0.85;;
52047;SDS011;46904;49.438;8.752;2023-01-09T07:52:52;5.45;;;1.23;;
52047;SDS011;46904;49.438;8.752;2023-01-09T07:55:18;2.35;;;0.80;;
52047;SDS011;46904;49.438;8.752;2023-01-09T07:57:48;2.72;;;0.73;;
52047;SDS011;46904;49.438;8.752;2023-01-09T08:00:18;2.15;;;1.35;;
52047;SDS011;46904;49.438;8.752;2023-01-09T08:02:52;1.92;;;1.15;;
52047;SDS011;46904;49.438;8.752;2023-01-09T08:05:18;5.03;;;1.00;;
52047;SDS011;46904;49.438;8.752;2023-01-09T08:07:44;4.22;;;1.00;;
52047;SDS011;46904;49.438;8.752;2023-01-09T08:10:13;1.40;;;0.93;;
52047;SDS011;46904;49.438;8.752;2023-01-09T08:12:42;3.60;;;0.80;;
52047;SDS011;46904;49.438;8.752;2023-01-09T08:15:08;1.52;;;0.80;;
52047;SDS011;46904;49.438;8.752;2023-01-09T08:17:34;3.05;;;1.15;;
52047;SDS011;46904;49.438;8.752;2023-01-09T08:20:00;3.72;;;1.30;;
52047;SDS011;46904;49.438;8.752;2023-01-09T08:22:28;1.38;;;0.90;;
52047;SDS011;46904;49.438;8.752;2023-01-09T08:24:54;2.33;;;0.70;;
52047;SDS011;46904;49.438;8.752;2023-01-09T08:27:20;2.50;;;1.38;;
52047;SDS011;46904;49.438;8.752;2023-01-09T08:29:46;3.67;;;0.98;;
52047;SDS011;46904;49.438;8.752;2023-01-09T08:32:12;2.05;;;1.05;;
52047;SDS011;46904;49.438;8.752;2023-01-09T08:34:38;2.25;;;0.77;;
52047;SDS011;46904;49.438;8.752;2023-01-09T08:37:05;3.13;;;1.17;;
52047;SDS011;46904;49.438;8.752;2023-01-09T08:39:30;2.05;;;0.75;;
52047;SDS011;46904;49.438;8.752;2023-01-09T08:41:56;2.75;;;1.13;;
52047;SDS011;46904;49.438;8.752;2023-01-09T08:44:22;5.35;;;1.00;;
52047;SDS011;46904;49.438;8.752;2023-01-09T08:46:50;1.60;;;0.80;;
52047;SDS011;46904;49.438;8.752;2023-01-09T08:49:23;3.40;;;1.02;;
52047;SDS011;46904;49.438;8.752;2023-01-09T08:51:49;4.25;;;0.98;;
52047;SDS011;46904;49.438;8.752;2023-01-09T08:54:14;2.97;;;0.90;;
52047;SDS011;46904;49.438;8.752;2023-01-09T08:56:40;2.30;;;0.90;;
52047;SDS011;46904;49.438;8.752;2023-01-09T08:59:06;5.10;;;0.98;;
52047;SDS011;46904;49.438;8.752;2023-01-09T09:01:31;5.38;;;1.00;;
52047;SDS011;46904;49.438;8.752;2023-01-09T09:03:57;2.17;;;0.80;;
52047;SDS011;46904;49.438;8.752;2023-01-09T09:06:22;3.47;;;0.80;;
52047;SDS011;46904;49.438;8.752;2023-01-09T09:08:49;2.45;;;1.00;;
52047;SDS011;46904;49.438;8.752;2023-01-09T09:11:14;1.27;;;0.82;;
52047;SDS011;46904;49.438;8.752;2023-01-09T09:13:52;2.85;;;0.80;;
52047;SDS011;46904;49.438;8.752;2023-01-09T09:16:19;2.80;;;0.77;;
52047;SDS011;46904;49.438;8.752;2023-01-09T09:18:44;1.35;;;0.80;;
52047;SDS011;46904;49.438;8.752;2023-01-09T09:21:10;1.63;;;0.60;;
52047;SDS011;46904;49.438;8.752;2023-01-09T09:23:36;1.23;;;0.90;;
52047;SDS011;46904;49.438;8.752;2023-01-09T09:26:02;5.82;;;1.20;;
52047;SDS011;46904;49.438;8.752;2023-01-09T09:28:27;1.58;;;0.70;;
52047;SDS011;46904;49.438;8.752;2023-01-09T09:30:53;2.05;;;1.20;;
52047;SDS011;46904;49.438;8.752;2023-01-09T09:33:20;3.13;;;0.80;;
52047;SDS011;46904;49.438;8.752;2023-01-09T09:35:46;1.00;;;0.63;;
52047;SDS011;46904;49.438;8.752;2023-01-09T09:38:12;1.92;;;0.80;;
52047;SDS011;46904;49.438;8.752;2023-01-09T09:43:18;1.85;;;0.70;;
52047;SDS011;46904;49.438;8.752;2023-01-09T09:48:41;1.02;;;0.70;;
52047;SDS011;46904;49.438;8.752;2023-01-09T09:56:28;0.95;;;0.70;;
52047;SDS011;46904;49.438;8.752;2023-01-09T09:58:56;2.10;;;0.68;;
52047;SDS011;46904;49.438;8.752;2023-01-09T10:01:49;3.53;;;0.75;;
52047;SDS011;46904;49.438;8.752;2023-01-09T10:04:11;1.75;;;1.02;;
52047;SDS011;46904;49.438;8.752;2023-01-09T10:06:45;1.00;;;0.65;;
52047;SDS011;46904;49.438;8.752;2023-01-09T10:09:14;0.65;;;0.60;;
52047;SDS011;46904;49.438;8.752;2023-01-09T10:11:43;2.08;;;0.73;;
52047;SDS011;46904;49.438;8.752;2023-01-09T10:14:11;1.55;;;0.60;;
52047;SDS011;46904;49.438;8.752;2023-01-09T10:19:37;2.28;;;0.73;;
52047;SDS011;46904;49.438;8.752;2023-01-09T10:24:51;4.15;;;0.80;;
52047;SDS011;46904;49.438;8.752;2023-01-09T10:27:40;1.33;;;0.63;;
52047;SDS011;46904;49.438;8.752;2023-01-09T10:30:23;2.08;;;0.93;;
52047;SDS011;46904;49.438;8.752;2023-01-09T10:37:49;1.63;;;0.80;;
52047;SDS011;46904;49.438;8.752;2023-01-09T10:40:18;0.80;;;0.70;;
52047;SDS011;46904;49.438;8.752;2023-01-09T10:42:49;1.40;;;0.75;;
52047;SDS011;46904;49.438;8.752;2023-01-09T10:47:42;1.95;;;0.60;;
52047;SDS011;46904;49.438;8.752;2023-01-09T10:50:20;1.48;;;0.70;;
52047;SDS011;46904;49.438;8.752;2023-01-09T10:52:53;1.30;;;0.77;;
52047;SDS011;46904;49.438;8.752;2023-01-09T10:55:39;1.00;;;0.57;;
52047;SDS011;46904;49.438;8.752;2023-01-09T10:58:12;1.40;;;0.60;;
52047;SDS011;46904;49.438;8.752;2023-01-09T11:00:38;0.95;;;0.60;;
52047;SDS011;46904;49.438;8.752;2023-01-09T11:03:05;1.40;;;1.00;;
52047;SDS011;46904;49.438;8.752;2023-01-09T11:05:35;0.60;;;0.60;;
52047;SDS011;46904;49.438;8.752;2023-01-09T11:08:11;1.17;;;0.70;;
52047;SDS011;46904;49.438;8.752;2023-01-09T11:10:58;4.45;;;1.35;;
52047;SDS011;46904;49.438;8.752;2023-01-09T11:13:29;1.08;;;0.90;;
52047;SDS011;46904;49.438;8.752;2023-01-09T11:15:58;2.60;;;0.90;;
52047;SDS011;46904;49.438;8.752;2023-01-09T11:18:24;1.25;;;0.63;;
52047;SDS011;46904;49.438;8.752;2023-01-09T11:20:53;1.00;;;0.80;;
52047;SDS011;46904;49.438;8.752;2023-01-09T11:23:22;1.60;;;0.70;;
52047;SDS011;46904;49.438;8.752;2023-01-09T11:25:53;1.25;;;0.70;;
52047;SDS011;46904;49.438;8.752;2023-01-09T11:28:20;1.35;;;0.70;;
52047;SDS011;46904;49.438;8.752;2023-01-09T11:30:55;3.90;;;0.70;;
52047;SDS011;46904;49.438;8.752;2023-01-09T11:33:26;1.50;;;0.70;;
52047;SDS011;46904;49.438;8.752;2023-01-09T11:35:56;1.80;;;0.80;;
52047;SDS011;46904;49.438;8.752;2023-01-09T11:38:24;1.02;;;0.80;;
52047;SDS011;46904;49.438;8.752;2023-01-09T11:40:54;1.33;;;0.80;;
52047;SDS011;46904;49.438;8.752;2023-01-09T11:43:28;3.28;;;0.80;;
52047;SDS011;46904;49.438;8.752;2023-01-09T11:45:56;1.38;;;0.63;;
52047;SDS011;46904;49.438;8.752;2023-01-09T11:50:54;2.00;;;0.80;;
52047;SDS011;46904;49.438;8.752;2023-01-09T11:53:20;0.95;;;0.65;;
52047;SDS011;46904;49.438;8.752;2023-01-09T11:55:48;2.13;;;0.82;;
52047;SDS011;46904;49.438;8.752;2023-01-09T11:58:15;0.55;;;0.50;;
52047;SDS011;46904;49.438;8.752;2023-01-09T12:06:04;1.43;;;0.83;;
52047;SDS011;46904;49.438;8.752;2023-01-09T12:16:25;1.40;;;0.80;;
52047;SDS011;46904;49.438;8.752;2023-01-09T12:19:07;1.40;;;0.80;;
52047;SDS011;46904;49.438;8.752;2023-01-09T12:21:38;1.42;;;0.73;;
52047;SDS011;46904;49.438;8.752;2023-01-09T12:24:27;1.80;;;1.10;;
52047;SDS011;46904;49.438;8.752;2023-01-09T12:27:59;1.20;;;0.80;;
52047;SDS011;46904;49.438;8.752;2023-01-09T12:30:06;1.08;;;0.90;;
52047;SDS011;46904;49.438;8.752;2023-01-09T12:32:45;2.30;;;0.98;;
52047;SDS011;46904;49.438;8.752;2023-01-09T12:40:46;1.23;;;0.70;;
52047;SDS011;46904;49.438;8.752;2023-01-09T12:46:18;1.95;;;0.90;;
52047;SDS011;46904;49.438;8.752;2023-01-09T12:56:50;2.25;;;0.80;;
52047;SDS011;46904;49.438;8.752;2023-01-09T13:01:44;2.20;;;0.73;;
52047;SDS011;46904;49.438;8.752;2023-01-09T13:04:15;1.58;;;0.90;;
52047;SDS011;46904;49.438;8.752;2023-01-09T13:06:43;1.23;;;0.90;;
52047;SDS011;46904;49.438;8.752;2023-01-09T13:09:14;1.58;;;0.90;;
52047;SDS011;46904;49.438;8.752;2023-01-09T13:11:47;1.00;;;0.80;;
52047;SDS011;46904;49.438;8.752;2023-01-09T13:14:23;3.05;;;1.38;;
52047;SDS011;46904;49.438;8.752;2023-01-09T13:16:50;3.92;;;1.40;;
52047;SDS011;46904;49.438;8.752;2023-01-09T13:19:21;1.40;;;1.00;;
52047;SDS011;46904;49.438;8.752;2023-01-09T13:21:49;1.90;;;0.90;;
52047;SDS011;46904;49.438;8.752;2023-01-09T13:24:35;1.50;;;1.08;;
52047;SDS011;46904;49.438;8.752;2023-01-09T13:27:13;1.75;;;0.70;;
52047;SDS011;46904;49.438;8.752;2023-01-09T13:29:41;2.03;;;0.80;;
52047;SDS011;46904;49.438;8.752;2023-01-09T13:34:52;2.13;;;0.68;;
52047;SDS011;46904;49.438;8.752;2023-01-09T13:37:37;1.27;;;0.60;;
52047;SDS011;46904;49.438;8.752;2023-01-09T13:40:05;1.30;;;0.70;;
52047;SDS011;46904;49.438;8.752;2023-01-09T13:42:31;0.87;;;0.73;;
52047;SDS011;46904;49.438;8.752;2023-01-09T13:50:33;3.28;;;1.08;;
52047;SDS011;46904;49.438;8.752;2023-01-09T13:58:24;2.60;;;0.80;;
52047;SDS011;46904;49.438;8.752;2023-01-09T14:00:51;0.75;;;0.60;;
52047;SDS011;46904;49.438;8.752;2023-01-09T14:03:26;0.88;;;0.52;;
52047;SDS011;46904;49.438;8.752;2023-01-09T14:08:18;1.17;;;0.88;;
52047;SDS011;46904;49.438;8.752;2023-01-09T14:10:45;0.98;;;0.80;;
52047;SDS011;46904;49.438;8.752;2023-01-09T14:13:20;0.93;;;0.60;;
52047;SDS011;46904;49.438;8.752;2023-01-09T14:15:45;1.60;;;0.70;;
52047;SDS011;46904;49.438;8.752;2023-01-09T14:18:21;2.58;;;1.25;;
52047;SDS011;46904;49.438;8.752;2023-01-09T14:20:52;1.13;;;0.70;;
52047;SDS011;46904;49.438;8.752;2023-01-09T14:23:22;0.95;;;0.75;;
52047;SDS011;46904;49.438;8.752;2023-01-09T14:25:48;1.85;;;0.60;;
52047;SDS011;46904;49.438;8.752;2023-01-09T14:35:47;1.73;;;0.82;;
52047;SDS011;46904;49.438;8.752;2023-01-09T14:40:45;3.08;;;1.38;;
52047;SDS011;46904;49.438;8.752;2023-01-09T14:43:15;2.40;;;1.35;;
52047;SDS011;46904;49.438;8.752;2023-01-09T14:45:43;1.98;;;1.02;;
52047;SDS011;46904;49.438;8.752;2023-01-09T14:48:10;2.65;;;1.23;;
52047;SDS011;46904;49.438;8.752;2023-01-09T14:50:37;2.00;;;0.93;;
52047;SDS011;46904;49.438;8.752;2023-01-09T14:53:12;1.40;;;0.90;;
52047;SDS011;46904;49.438;8.752;2023-01-09T14:55:55;0.85;;;0.55;;
52047;SDS011;46904;49.438;8.752;2023-01-09T15:00:48;1.77;;;0.73;;
52047;SDS011;46904;49.438;8.752;2023-01-09T15:03:15;1.20;;;0.70;;
52047;SDS011;46904;49.438;8.752;2023-01-09T15:05:42;1.25;;;0.82;;
52047;SDS011;46904;49.438;8.752;2023-01-09T15:08:10;1.02;;;0.80;;
52047;SDS011;46904;49.438;8.752;2023-01-09T15:10:39;0.60;;;0.60;;
52047;SDS011;46904;49.438;8.752;2023-01-09T15:13:09;0.98;;;0.70;;
52047;SDS011;46904;49.438;8.752;2023-01-09T15:15:42;1.10;;;0.85;;
52047;SDS011;46904;49.438;8.752;2023-01-09T15:18:08;2.72;;;0.90;;
52047;SDS011;46904;49.438;8.752;2023-01-09T15:20:33;0.77;;;0.77;;
52047;SDS011;46904;49.438;8.752;2023-01-09T15:23:00;1.10;;;0.70;;
52047;SDS011;46904;49.438;8.752;2023-01-09T15:25:27;0.85;;;0.80;;
52047;SDS011;46904;49.438;8.752;2023-01-09T15:27:54;1.60;;;0.82;;
52047;SDS011;46904;49.438;8.752;2023-01-09T15:30:21;1.00;;;0.80;;
52047;SDS011;46904;49.438;8.752;2023-01-09T15:32:47;1.40;;;0.80;;
52047;SDS011;46904;49.438;8.752;2023-01-09T15:35:14;1.02;;;0.90;;
52047;SDS011;46904;49.438;8.752;2023-01-09T15:37:40;1.50;;;1.05;;
52047;SDS011;46904;49.438;8.752;2023-01-09T15:40:06;2.55;;;1.05;;
52047;SDS011;46904;49.438;8.752;2023-01-09T15:42:36;2.20;;;0.65;;
52047;SDS011;46904;49.438;8.752;2023-01-09T15:45:02;1.05;;;0.95;;
52047;SDS011;46904;49.438;8.752;2023-01-09T15:47:30;0.98;;;0.80;;
52047;SDS011;46904;49.438;8.752;2023-01-09T15:49:56;1.83;;;0.82;;
52047;SDS011;46904;49.438;8.752;2023-01-09T15:52:22;1.23;;;0.80;;
52047;SDS011;46904;49.438;8.752;2023-01-09T15:54:48;1.80;;;0.90;;
52047;SDS011;46904;49.438;8.752;2023-01-09T15:57:22;1.35;;;0.90;;
52047;SDS011;46904;49.438;8.752;2023-01-09T15:59:51;1.20;;;0.82;;
52047;SDS011;46904;49.438;8.752;2023-01-09T16:02:18;1.08;;;0.70;;
52047;SDS011;46904;49.438;8.752;2023-01-09T16:04:53;2.47;;;1.17;;
52047;SDS011;46904;49.438;8.752;2023-01-09T16:07:22;2.13;;;0.75;;
52047;SDS011;46904;49.438;8.752;2023-01-09T16:09:49;2.80;;;0.77;;
52047;SDS011;46904;49.438;8.752;2023-01-09T16:12:22;3.03;;;0.70;;
52047;SDS011;46904;49.438;8.752;2023-01-09T16:14:50;2.47;;;0.70;;
52047;SDS011;46904;49.438;8.752;2023-01-09T16:17:16;1.17;;;1.05;;
52047;SDS011;46904;49.438;8.752;2023-01-09T16:19:51;1.35;;;0.73;;
52047;SDS011;46904;49.438;8.752;2023-01-09T16:22:27;1.00;;;0.90;;
52047;SDS011;46904;49.438;8.752;2023-01-09T16:24:57;2.00;;;0.90;;
52047;SDS011;46904;49.438;8.752;2023-01-09T16:27:24;2.75;;;0.70;;
52047;SDS011;46904;49.438;8.752;2023-01-09T16:29:52;1.25;;;1.00;;
52047;SDS011;46904;49.438;8.752;2023-01-09T16:32:22;2.00;;;0.90;;
52047;SDS011;46904;49.438;8.752;2023-01-09T16:34:55;1.48;;;0.90;;
52047;SDS011;46904;49.438;8.752;2023-01-09T16:37:25;2.13;;;0.70;;
52047;SDS011;46904;49.438;8.752;2023-01-09T16:42:33;2.85;;;1.08;;
52047;SDS011;46904;49.438;8.752;2023-01-09T16:45:00;1.58;;;0.90;;
52047;SDS011;46904;49.438;8.752;2023-01-09T16:47:25;1.00;;;0.80;;
52047;SDS011;46904;49.438;8.752;2023-01-09T16:49:52;1.33;;;0.90;;
52047;SDS011;46904;49.438;8.752;2023-01-09T16:52:18;0.90;;;0.63;;
52047;SDS011;46904;49.438;8.752;2023-01-09T16:54:44;2.97;;;0.90;;
52047;SDS011;46904;49.438;8.752;2023-01-09T16:57:12;2.00;;;1.33;;
52047;SDS011;46904;49.438;8.752;2023-01-09T16:59:40;2.22;;;1.00;;
52047;SDS011;46904;49.438;8.752;2023-01-09T17:02:13;1.52;;;0.88;;
52047;SDS011;46904;49.438;8.752;2023-01-09T17:04:42;2.05;;;1.15;;